sensor_id;sensor_type;location;lat;lon;timestamp;pressure;altitude;pressure_sealevel;temperature;humidity
55460;BME280;41326;45.302;-122.946;2022-07-23T00:00:15;101186.22;;;20.12;46.72
55460;BME280;41326;45.302;-122.946;2022-07-23T00:02:45;101187.53;;;20.04;46.82
55460;BME280;41326;45.302;-122.946;2022-07-23T00:05:16;101189.75;;;19.95;47.14
55460;BME280;41326;45.302;-122.946;2022-07-23T00:07:46;101190.05;;;19.99;48.07
55460;BME280;41326;45.302;-122.946;2022-07-23T00:10:16;101184.86;;;20.08;48.84
55460;BME280;41326;45.302;-122.946;2022-07-23T00:12:47;101184.30;;;20.21;49.36
55460;BME280;41326;45.302;-122.946;2022-07-23T00:15:17;101181.22;;;20.34;47.83
55460;BME280;41326;45.302;-122.946;2022-07-23T00:17:48;101182.11;;;20.29;48.53
55460;BME280;41326;45.302;-122.946;2022-07-23T00:20:18;101180.59;;;20.24;47.01
55460;BME280;41326;45.302;-122.946;2022-07-23T00:22:53;101183.49;;;20.23;47.97
55460;BME280;41326;45.302;-122.946;2022-07-23T00:25:19;101185.32;;;20.17;47.51
55460;BME280;41326;45.302;-122.946;2022-07-23T00:27:49;101178.92;;;20.16;49.19
55460;BME280;41326;45.302;-122.946;2022-07-23T00:30:19;101176.17;;;20.19;49.88
55460;BME280;41326;45.302;-122.946;2022-07-23T00:32:53;101176.67;;;20.40;49.98
55460;BME280;41326;45.302;-122.946;2022-07-23T00:35:20;101172.84;;;20.42;48.62
55460;BME280;41326;45.302;-122.946;2022-07-23T00:37:50;101173.77;;;20.37;47.50
55460;BME280;41326;45.302;-122.946;2022-07-23T00:40:21;101174.05;;;20.34;46.51
55460;BME280;41326;45.302;-122.946;2022-07-23T00:42:52;101172.42;;;20.28;46.43
55460;BME280;41326;45.302;-122.946;2022-07-23T00:45:22;101174.14;;;20.16;46.49
55460;BME280;41326;45.302;-122.946;2022-07-23T00:47:52;101167.94;;;20.19;48.08
55460;BME280;41326;45.302;-122.946;2022-07-23T00:50:23;101167.17;;;20.25;48.68
55460;BME280;41326;45.302;-122.946;2022-07-23T00:52:53;101169.22;;;20.39;49.12
55460;BME280;41326;45.302;-122.946;2022-07-23T00:55:23;101171.05;;;20.43;47.90
55460;BME280;41326;45.302;-122.946;2022-07-23T00:57:53;101170.46;;;20.36;46.79
55460;BME280;41326;45.302;-122.946;2022-07-23T01:00:24;101172.16;;;20.30;46.64
55460;BME280;41326;45.302;-122.946;2022-07-23T01:02:55;101168.15;;;20.22;46.65
55460;BME280;41326;45.302;-122.946;2022-07-23T01:05:25;101167.05;;;20.16;46.45
55460;BME280;41326;45.302;-122.946;2022-07-23T01:07:55;101163.94;;;20.20;47.77
55460;BME280;41326;45.302;-122.946;2022-07-23T01:10:26;101167.65;;;20.32;48.30
55460;BME280;41326;45.302;-122.946;2022-07-23T01:12:56;101169.08;;;20.39;48.87
55460;BME280;41326;45.302;-122.946;2022-07-23T01:15:27;101161.53;;;20.39;47.79
55460;BME280;41326;45.302;-122.946;2022-07-23T01:17:57;101155.71;;;20.42;46.73
55460;BME280;41326;45.302;-122.946;2022-07-23T01:20:27;101153.09;;;20.39;46.26
55460;BME280;41326;45.302;-122.946;2022-07-23T01:22:58;101150.59;;;20.30;46.36
55460;BME280;41326;45.302;-122.946;2022-07-23T01:25:28;101144.76;;;20.24;46.11
55460;BME280;41326;45.302;-122.946;2022-07-23T01:27:59;101145.95;;;20.18;46.57
55460;BME280;41326;45.302;-122.946;2022-07-23T01:30:28;101144.45;;;20.10;46.24
55460;BME280;41326;45.302;-122.946;2022-07-23T01:32:59;101146.32;;;19.99;46.87
55460;BME280;41326;45.302;-122.946;2022-07-23T01:35:28;101145.59;;;19.95;47.43
55460;BME280;41326;45.302;-122.946;2022-07-23T01:37:59;101144.09;;;19.93;47.20
55460;BME280;41326;45.302;-122.946;2022-07-23T01:40:29;101143.69;;;19.90;47.19
55460;BME280;41326;45.302;-122.946;2022-07-23T01:43:00;101146.73;;;19.90;47.12
55460;BME280;41326;45.302;-122.946;2022-07-23T01:45:30;101147.81;;;19.88;47.57
55460;BME280;41326;45.302;-122.946;2022-07-23T01:48:00;101147.05;;;19.85;47.96
55460;BME280;41326;45.302;-122.946;2022-07-23T01:50:30;101144.74;;;19.90;49.49
55460;BME280;41326;45.302;-122.946;2022-07-23T01:53:01;101145.12;;;20.02;50.43
55460;BME280;41326;45.302;-122.946;2022-07-23T01:55:31;101139.96;;;20.10;51.69
55460;BME280;41326;45.302;-122.946;2022-07-23T01:58:01;101140.84;;;20.18;51.13
55460;BME280;41326;45.302;-122.946;2022-07-23T02:00:31;101138.88;;;20.22;49.45
55460;BME280;41326;45.302;-122.946;2022-07-23T02:03:02;101139.67;;;20.14;47.92
55460;BME280;41326;45.302;-122.946;2022-07-23T02:05:33;101143.47;;;20.06;47.69
55460;BME280;41326;45.302;-122.946;2022-07-23T02:08:03;101146.66;;;19.97;46.93
55460;BME280;41326;45.302;-122.946;2022-07-23T02:10:33;101146.78;;;20.03;48.49
55460;BME280;41326;45.302;-122.946;2022-07-23T02:13:03;101145.09;;;20.15;49.86
55460;BME280;41326;45.302;-122.946;2022-07-23T02:15:34;101146.49;;;20.25;51.61
55460;BME280;41326;45.302;-122.946;2022-07-23T02:18:04;101146.09;;;20.31;49.93
55460;BME280;41326;45.302;-122.946;2022-07-23T02:20:35;101147.42;;;20.24;49.14
55460;BME280;41326;45.302;-122.946;2022-07-23T02:23:05;101149.89;;;20.22;48.42
55460;BME280;41326;45.302;-122.946;2022-07-23T02:25:36;101148.83;;;20.10;47.89
55460;BME280;41326;45.302;-122.946;2022-07-23T02:28:06;101146.46;;;20.06;48.60
55460;BME280;41326;45.302;-122.946;2022-07-23T02:30:37;101146.47;;;20.19;48.96
55460;BME280;41326;45.302;-122.946;2022-07-23T02:33:07;101146.54;;;20.28;49.37
55460;BME280;41326;45.302;-122.946;2022-07-23T02:35:37;101146.48;;;20.39;50.02
55460;BME280;41326;45.302;-122.946;2022-07-23T02:38:07;101149.32;;;20.52;50.17
55460;BME280;41326;45.302;-122.946;2022-07-23T02:40:38;101148.51;;;20.56;51.24
55460;BME280;41326;45.302;-122.946;2022-07-23T02:43:08;101153.58;;;20.60;49.41
55460;BME280;41326;45.302;-122.946;2022-07-23T02:45:38;101152.65;;;20.45;48.70
55460;BME280;41326;45.302;-122.946;2022-07-23T02:48:09;101152.75;;;20.33;47.75
55460;BME280;41326;45.302;-122.946;2022-07-23T02:50:40;101150.45;;;20.18;48.75
55460;BME280;41326;45.302;-122.946;2022-07-23T02:53:10;101147.31;;;20.09;47.90
55460;BME280;41326;45.302;-122.946;2022-07-23T02:55:40;101155.31;;;20.06;49.37
55460;BME280;41326;45.302;-122.946;2022-07-23T02:58:11;101153.22;;;20.24;50.09
55460;BME280;41326;45.302;-122.946;2022-07-23T03:00:42;101159.03;;;20.30;50.71
55460;BME280;41326;45.302;-122.946;2022-07-23T03:03:12;101159.53;;;20.39;50.85
55460;BME280;41326;45.302;-122.946;2022-07-23T03:05:43;101164.43;;;20.43;51.12
55460;BME280;41326;45.302;-122.946;2022-07-23T03:08:13;101170.51;;;20.56;51.00
55460;BME280;41326;45.302;-122.946;2022-07-23T03:10:43;101171.55;;;20.63;50.89
55460;BME280;41326;45.302;-122.946;2022-07-23T03:13:14;101168.83;;;20.68;51.21
55460;BME280;41326;45.302;-122.946;2022-07-23T03:15:44;101171.75;;;20.76;51.75
55460;BME280;41326;45.302;-122.946;2022-07-23T03:18:14;101176.44;;;20.81;52.03
55460;BME280;41326;45.302;-122.946;2022-07-23T03:20:45;101176.49;;;20.82;52.14
55460;BME280;41326;45.302;-122.946;2022-07-23T03:23:16;101178.01;;;20.83;50.33
55460;BME280;41326;45.302;-122.946;2022-07-23T03:25:45;101178.23;;;20.72;48.72
55460;BME280;41326;45.302;-122.946;2022-07-23T03:28:16;101178.80;;;20.54;47.43
55460;BME280;41326;45.302;-122.946;2022-07-23T03:30:46;101181.40;;;20.44;47.77
55460;BME280;41326;45.302;-122.946;2022-07-23T03:33:17;101184.12;;;20.41;49.05
55460;BME280;41326;45.302;-122.946;2022-07-23T03:35:47;101185.06;;;20.47;52.57
55460;BME280;41326;45.302;-122.946;2022-07-23T03:38:17;101185.88;;;20.49;54.49
55460;BME280;41326;45.302;-122.946;2022-07-23T03:40:47;101188.41;;;20.54;56.29
55460;BME280;41326;45.302;-122.946;2022-07-23T03:43:18;101194.84;;;20.63;56.63
55460;BME280;41326;45.302;-122.946;2022-07-23T03:45:48;101201.79;;;20.67;58.00
55460;BME280;41326;45.302;-122.946;2022-07-23T03:48:19;101205.32;;;20.75;57.57
55460;BME280;41326;45.302;-122.946;2022-07-23T03:50:49;101208.49;;;20.80;57.62
55460;BME280;41326;45.302;-122.946;2022-07-23T03:53:19;101210.52;;;20.81;57.87
55460;BME280;41326;45.302;-122.946;2022-07-23T03:55:49;101212.93;;;20.91;58.18
55460;BME280;41326;45.302;-122.946;2022-07-23T03:58:20;101215.99;;;20.81;58.94
55460;BME280;41326;45.302;-122.946;2022-07-23T04:00:50;101218.34;;;20.80;58.79
55460;BME280;41326;45.302;-122.946;2022-07-23T04:03:20;101217.65;;;20.86;58.66
55460;BME280;41326;45.302;-122.946;2022-07-23T04:05:51;101218.98;;;20.94;58.30
55460;BME280;41326;45.302;-122.946;2022-07-23T04:08:21;101224.23;;;20.89;58.69
55460;BME280;41326;45.302;-122.946;2022-07-23T04:10:51;101225.65;;;20.93;58.52
55460;BME280;41326;45.302;-122.946;2022-07-23T04:13:21;101225.13;;;20.93;59.14
55460;BME280;41326;45.302;-122.946;2022-07-23T04:15:51;101226.37;;;20.92;59.53
55460;BME280;41326;45.302;-122.946;2022-07-23T04:18:22;101225.91;;;20.78;60.20
55460;BME280;41326;45.302;-122.946;2022-07-23T04:20:52;101225.15;;;20.71;60.07
55460;BME280;41326;45.302;-122.946;2022-07-23T04:23:22;101230.20;;;20.64;60.12
55460;BME280;41326;45.302;-122.946;2022-07-23T04:25:53;101227.92;;;20.58;60.17
55460;BME280;41326;45.302;-122.946;2022-07-23T04:28:23;101231.64;;;20.57;60.06
55460;BME280;41326;45.302;-122.946;2022-07-23T04:30:55;101235.37;;;20.55;59.90
55460;BME280;41326;45.302;-122.946;2022-07-23T04:33:24;101238.53;;;20.50;60.05
55460;BME280;41326;45.302;-122.946;2022-07-23T04:35:54;101240.43;;;20.50;60.42
55460;BME280;41326;45.302;-122.946;2022-07-23T04:38:25;101244.67;;;20.49;60.21
55460;BME280;41326;45.302;-122.946;2022-07-23T04:40:55;101242.53;;;20.45;60.09
55460;BME280;41326;45.302;-122.946;2022-07-23T04:43:25;101246.70;;;20.40;60.28
55460;BME280;41326;45.302;-122.946;2022-07-23T04:45:56;101245.04;;;20.43;59.95
55460;BME280;41326;45.302;-122.946;2022-07-23T04:48:26;101249.71;;;20.44;59.01
55460;BME280;41326;45.302;-122.946;2022-07-23T04:50:57;101252.75;;;20.40;58.78
55460;BME280;41326;45.302;-122.946;2022-07-23T04:53:27;101256.84;;;20.33;59.18
55460;BME280;41326;45.302;-122.946;2022-07-23T04:55:57;101261.51;;;20.30;59.60
55460;BME280;41326;45.302;-122.946;2022-07-23T04:58:27;101261.89;;;20.29;59.52
55460;BME280;41326;45.302;-122.946;2022-07-23T05:00:58;101263.47;;;20.25;59.50
55460;BME280;41326;45.302;-122.946;2022-07-23T05:03:29;101263.03;;;20.21;59.53
55460;BME280;41326;45.302;-122.946;2022-07-23T05:05:59;101264.79;;;20.20;59.36
55460;BME280;41326;45.302;-122.946;2022-07-23T05:08:29;101272.89;;;20.27;59.12
55460;BME280;41326;45.302;-122.946;2022-07-23T05:11:00;101272.18;;;20.22;59.04
55460;BME280;41326;45.302;-122.946;2022-07-23T05:13:30;101276.17;;;20.19;59.04
55460;BME280;41326;45.302;-122.946;2022-07-23T05:16:00;101276.49;;;20.19;59.14
55460;BME280;41326;45.302;-122.946;2022-07-23T05:18:30;101277.66;;;20.22;59.03
55460;BME280;41326;45.302;-122.946;2022-07-23T05:21:02;101279.98;;;20.22;59.04
55460;BME280;41326;45.302;-122.946;2022-07-23T05:23:32;101283.97;;;20.25;58.79
55460;BME280;41326;45.302;-122.946;2022-07-23T05:26:02;101286.90;;;20.29;58.65
55460;BME280;41326;45.302;-122.946;2022-07-23T05:28:33;101287.94;;;20.36;58.40
55460;BME280;41326;45.302;-122.946;2022-07-23T05:31:03;101282.25;;;20.32;58.50
55460;BME280;41326;45.302;-122.946;2022-07-23T05:33:34;101282.27;;;20.37;58.38
55460;BME280;41326;45.302;-122.946;2022-07-23T05:36:06;101285.61;;;20.42;58.47
55460;BME280;41326;45.302;-122.946;2022-07-23T05:38:35;101289.71;;;20.47;58.36
55460;BME280;41326;45.302;-122.946;2022-07-23T05:41:05;101282.73;;;20.45;58.39
55460;BME280;41326;45.302;-122.946;2022-07-23T05:43:36;101286.98;;;20.46;58.09
55460;BME280;41326;45.302;-122.946;2022-07-23T05:46:06;101285.73;;;20.44;58.04
55460;BME280;41326;45.302;-122.946;2022-07-23T05:48:36;101287.15;;;20.52;57.70
55460;BME280;41326;45.302;-122.946;2022-07-23T05:51:06;101284.66;;;20.50;57.31
55460;BME280;41326;45.302;-122.946;2022-07-23T05:53:37;101289.69;;;20.47;57.79
55460;BME280;41326;45.302;-122.946;2022-07-23T05:56:07;101291.41;;;20.48;57.88
55460;BME280;41326;45.302;-122.946;2022-07-23T05:58:37;101295.14;;;20.48;57.77
55460;BME280;41326;45.302;-122.946;2022-07-23T06:01:08;101295.44;;;20.46;57.24
55460;BME280;41326;45.302;-122.946;2022-07-23T06:03:38;101293.80;;;20.39;57.44
55460;BME280;41326;45.302;-122.946;2022-07-23T06:06:09;101295.14;;;20.41;57.39
55460;BME280;41326;45.302;-122.946;2022-07-23T06:08:39;101293.75;;;20.42;57.33
55460;BME280;41326;45.302;-122.946;2022-07-23T06:11:10;101298.37;;;20.41;57.35
55460;BME280;41326;45.302;-122.946;2022-07-23T06:13:40;101301.66;;;20.41;57.01
55460;BME280;41326;45.302;-122.946;2022-07-23T06:16:10;101302.62;;;20.32;57.56
55460;BME280;41326;45.302;-122.946;2022-07-23T06:18:41;101304.57;;;20.29;57.32
55460;BME280;41326;45.302;-122.946;2022-07-23T06:21:11;101307.74;;;20.32;57.10
55460;BME280;41326;45.302;-122.946;2022-07-23T06:23:41;101309.27;;;20.31;56.96
55460;BME280;41326;45.302;-122.946;2022-07-23T06:26:12;101314.07;;;20.31;56.81
55460;BME280;41326;45.302;-122.946;2022-07-23T06:28:41;101310.47;;;20.25;57.07
55460;BME280;41326;45.302;-122.946;2022-07-23T06:31:11;101308.15;;;20.29;56.98
55460;BME280;41326;45.302;-122.946;2022-07-23T06:33:43;101308.41;;;20.30;56.99
55460;BME280;41326;45.302;-122.946;2022-07-23T06:36:13;101308.22;;;20.32;57.11
55460;BME280;41326;45.302;-122.946;2022-07-23T06:38:43;101313.19;;;20.31;56.94
55460;BME280;41326;45.302;-122.946;2022-07-23T06:41:13;101310.79;;;20.32;56.94
55460;BME280;41326;45.302;-122.946;2022-07-23T06:43:44;101313.41;;;20.32;56.89
55460;BME280;41326;45.302;-122.946;2022-07-23T06:46:14;101314.65;;;20.38;56.80
55460;BME280;41326;45.302;-122.946;2022-07-23T06:48:44;101311.48;;;20.34;56.90
55460;BME280;41326;45.302;-122.946;2022-07-23T06:51:15;101314.61;;;20.30;56.97
55460;BME280;41326;45.302;-122.946;2022-07-23T06:53:45;101315.76;;;20.28;57.19
55460;BME280;41326;45.302;-122.946;2022-07-23T06:56:16;101314.59;;;20.30;57.19
55460;BME280;41326;45.302;-122.946;2022-07-23T06:58:46;101316.42;;;20.33;56.99
55460;BME280;41326;45.302;-122.946;2022-07-23T07:01:16;101316.95;;;20.35;56.90
55460;BME280;41326;45.302;-122.946;2022-07-23T07:03:47;101322.08;;;20.32;56.94
55460;BME280;41326;45.302;-122.946;2022-07-23T07:06:17;101321.56;;;20.30;56.95
55460;BME280;41326;45.302;-122.946;2022-07-23T07:08:47;101328.08;;;20.31;56.83
55460;BME280;41326;45.302;-122.946;2022-07-23T07:11:17;101330.29;;;20.26;56.64
55460;BME280;41326;45.302;-122.946;2022-07-23T07:13:47;101331.51;;;20.24;56.78
55460;BME280;41326;45.302;-122.946;2022-07-23T07:16:18;101328.96;;;20.23;56.99
55460;BME280;41326;45.302;-122.946;2022-07-23T07:18:48;101331.08;;;20.25;56.78
55460;BME280;41326;45.302;-122.946;2022-07-23T07:21:19;101328.64;;;20.19;56.72
55460;BME280;41326;45.302;-122.946;2022-07-23T07:23:49;101328.98;;;20.14;56.95
55460;BME280;41326;45.302;-122.946;2022-07-23T07:26:19;101330.09;;;20.11;57.05
55460;BME280;41326;45.302;-122.946;2022-07-23T07:28:49;101328.73;;;20.09;56.90
55460;BME280;41326;45.302;-122.946;2022-07-23T07:31:19;101331.84;;;20.16;56.60
55460;BME280;41326;45.302;-122.946;2022-07-23T07:33:50;101333.96;;;20.17;56.62
55460;BME280;41326;45.302;-122.946;2022-07-23T07:36:19;101330.97;;;20.12;56.73
55460;BME280;41326;45.302;-122.946;2022-07-23T07:38:50;101332.99;;;20.09;56.88
55460;BME280;41326;45.302;-122.946;2022-07-23T07:41:20;101334.16;;;20.16;56.54
55460;BME280;41326;45.302;-122.946;2022-07-23T07:43:50;101336.63;;;20.15;56.56
55460;BME280;41326;45.302;-122.946;2022-07-23T07:46:20;101335.62;;;20.16;56.57
55460;BME280;41326;45.302;-122.946;2022-07-23T07:48:50;101336.07;;;20.12;56.72
55460;BME280;41326;45.302;-122.946;2022-07-23T07:51:21;101337.59;;;20.11;56.67
55460;BME280;41326;45.302;-122.946;2022-07-23T07:53:51;101335.43;;;20.12;56.77
55460;BME280;41326;45.302;-122.946;2022-07-23T07:56:21;101338.62;;;20.14;56.83
55460;BME280;41326;45.302;-122.946;2022-07-23T07:58:52;101338.31;;;20.22;56.56
55460;BME280;41326;45.302;-122.946;2022-07-23T08:01:22;101342.43;;;20.20;56.61
55460;BME280;41326;45.302;-122.946;2022-07-23T08:03:52;101341.32;;;20.12;56.82
55460;BME280;41326;45.302;-122.946;2022-07-23T08:06:23;101341.09;;;20.13;56.82
55460;BME280;41326;45.302;-122.946;2022-07-23T08:08:53;101344.09;;;20.19;56.62
55460;BME280;41326;45.302;-122.946;2022-07-23T08:11:24;101344.86;;;20.13;56.80
55460;BME280;41326;45.302;-122.946;2022-07-23T08:13:54;101348.15;;;20.13;56.88
55460;BME280;41326;45.302;-122.946;2022-07-23T08:16:24;101349.80;;;20.16;56.85
55460;BME280;41326;45.302;-122.946;2022-07-23T08:18:54;101346.55;;;20.19;56.76
55460;BME280;41326;45.302;-122.946;2022-07-23T08:21:24;101348.03;;;20.22;56.64
55460;BME280;41326;45.302;-122.946;2022-07-23T08:23:55;101351.25;;;20.22;56.59
55460;BME280;41326;45.302;-122.946;2022-07-23T08:26:25;101352.49;;;20.17;56.71
55460;BME280;41326;45.302;-122.946;2022-07-23T08:28:56;101350.45;;;20.22;56.27
55460;BME280;41326;45.302;-122.946;2022-07-23T08:31:26;101347.50;;;20.13;56.63
55460;BME280;41326;45.302;-122.946;2022-07-23T08:33:57;101347.74;;;20.11;56.66
55460;BME280;41326;45.302;-122.946;2022-07-23T08:36:27;101348.92;;;20.10;56.69
55460;BME280;41326;45.302;-122.946;2022-07-23T08:38:58;101347.62;;;20.05;56.58
55460;BME280;41326;45.302;-122.946;2022-07-23T08:42:36;101354.28;;;19.98;56.93
55460;BME280;41326;45.302;-122.946;2022-07-23T08:45:08;101352.15;;;20.04;56.80
55460;BME280;41326;45.302;-122.946;2022-07-23T08:47:37;101352.77;;;20.01;56.85
55460;BME280;41326;45.302;-122.946;2022-07-23T08:50:07;101356.57;;;20.00;56.86
55460;BME280;41326;45.302;-122.946;2022-07-23T08:52:36;101356.95;;;20.00;56.89
55460;BME280;41326;45.302;-122.946;2022-07-23T08:55:07;101357.72;;;20.01;56.94
55460;BME280;41326;45.302;-122.946;2022-07-23T08:57:37;101355.74;;;19.97;57.10
55460;BME280;41326;45.302;-122.946;2022-07-23T09:00:08;101356.44;;;19.97;57.10
55460;BME280;41326;45.302;-122.946;2022-07-23T09:02:45;101357.33;;;19.94;57.21
55460;BME280;41326;45.302;-122.946;2022-07-23T09:05:08;101356.70;;;19.97;57.01
55460;BME280;41326;45.302;-122.946;2022-07-23T09:08:02;101359.75;;;19.96;57.01
55460;BME280;41326;45.302;-122.946;2022-07-23T09:10:13;101360.69;;;20.00;56.88
55460;BME280;41326;45.302;-122.946;2022-07-23T09:12:39;101361.47;;;20.00;56.93
55460;BME280;41326;45.302;-122.946;2022-07-23T09:15:10;101361.60;;;20.00;56.97
55460;BME280;41326;45.302;-122.946;2022-07-23T09:17:43;101364.42;;;20.03;56.85
55460;BME280;41326;45.302;-122.946;2022-07-23T09:20:14;101366.99;;;20.05;56.74
55460;BME280;41326;45.302;-122.946;2022-07-23T09:22:40;101366.42;;;20.03;56.74
55460;BME280;41326;45.302;-122.946;2022-07-23T09:25:14;101367.38;;;19.98;56.89
55460;BME280;41326;45.302;-122.946;2022-07-23T09:27:47;101368.17;;;20.02;56.80
55460;BME280;41326;45.302;-122.946;2022-07-23T09:30:12;101368.60;;;20.01;56.82
55460;BME280;41326;45.302;-122.946;2022-07-23T09:32:42;101370.85;;;19.96;56.96
55460;BME280;41326;45.302;-122.946;2022-07-23T09:35:13;101376.76;;;19.95;56.96
55460;BME280;41326;45.302;-122.946;2022-07-23T09:37:45;101375.32;;;19.87;57.20
55460;BME280;41326;45.302;-122.946;2022-07-23T09:40:14;101373.28;;;19.91;57.00
55460;BME280;41326;45.302;-122.946;2022-07-23T09:42:43;101370.43;;;19.88;57.14
55460;BME280;41326;45.302;-122.946;2022-07-23T09:45:16;101368.58;;;19.86;57.22
55460;BME280;41326;45.302;-122.946;2022-07-23T09:47:44;101368.82;;;19.87;57.22
55460;BME280;41326;45.302;-122.946;2022-07-23T09:50:15;101372.64;;;19.83;57.33
55460;BME280;41326;45.302;-122.946;2022-07-23T09:52:49;101375.97;;;19.83;57.22
55460;BME280;41326;45.302;-122.946;2022-07-23T09:55:15;101376.35;;;19.87;57.10
55460;BME280;41326;45.302;-122.946;2022-07-23T09:57:46;101375.59;;;19.94;56.85
55460;BME280;41326;45.302;-122.946;2022-07-23T10:00:16;101373.05;;;19.94;56.84
55460;BME280;41326;45.302;-122.946;2022-07-23T10:02:46;101371.66;;;19.93;56.89
55460;BME280;41326;45.302;-122.946;2022-07-23T10:05:17;101377.66;;;19.88;57.03
55460;BME280;41326;45.302;-122.946;2022-07-23T10:07:47;101379.87;;;19.84;57.18
55460;BME280;41326;45.302;-122.946;2022-07-23T10:10:18;101382.89;;;19.83;57.19
55460;BME280;41326;45.302;-122.946;2022-07-23T10:12:49;101383.88;;;19.88;57.02
55460;BME280;41326;45.302;-122.946;2022-07-23T10:15:18;101384.77;;;19.93;56.80
55460;BME280;41326;45.302;-122.946;2022-07-23T10:17:48;101381.62;;;19.93;56.74
55460;BME280;41326;45.302;-122.946;2022-07-23T10:20:19;101379.52;;;19.94;56.68
55460;BME280;41326;45.302;-122.946;2022-07-23T10:22:55;101380.11;;;19.82;57.07
55460;BME280;41326;45.302;-122.946;2022-07-23T10:25:26;101381.12;;;19.77;57.21
55460;BME280;41326;45.302;-122.946;2022-07-23T10:30:26;101383.55;;;19.76;57.13
55460;BME280;41326;45.302;-122.946;2022-07-23T10:33:00;101382.60;;;19.74;57.17
55460;BME280;41326;45.302;-122.946;2022-07-23T10:35:26;101379.27;;;19.77;57.10
55460;BME280;41326;45.302;-122.946;2022-07-23T10:37:56;101377.41;;;19.80;56.98
55460;BME280;41326;45.302;-122.946;2022-07-23T10:40:22;101379.93;;;19.80;56.94
55460;BME280;41326;45.302;-122.946;2022-07-23T10:42:52;101382.51;;;19.77;57.06
55460;BME280;41326;45.302;-122.946;2022-07-23T10:45:27;101384.61;;;19.72;57.23
55460;BME280;41326;45.302;-122.946;2022-07-23T10:47:52;101385.23;;;19.74;57.14
55460;BME280;41326;45.302;-122.946;2022-07-23T10:50:26;101387.36;;;19.64;57.48
55460;BME280;41326;45.302;-122.946;2022-07-23T10:57:54;101387.51;;;19.74;56.97
55460;BME280;41326;45.302;-122.946;2022-07-23T11:00:27;101389.35;;;19.71;56.99
55460;BME280;41326;45.302;-122.946;2022-07-23T11:02:56;101390.32;;;19.72;56.93
55460;BME280;41326;45.302;-122.946;2022-07-23T11:05:25;101391.08;;;19.71;56.94
55460;BME280;41326;45.302;-122.946;2022-07-23T11:12:54;101394.05;;;19.56;57.22
55460;BME280;41326;45.302;-122.946;2022-07-23T11:15:25;101393.19;;;19.46;57.48
55460;BME280;41326;45.302;-122.946;2022-07-23T11:17:59;101394.80;;;19.50;57.37
55460;BME280;41326;45.302;-122.946;2022-07-23T11:20:26;101395.53;;;19.52;57.37
55460;BME280;41326;45.302;-122.946;2022-07-23T11:22:58;101395.19;;;19.49;57.44
55460;BME280;41326;45.302;-122.946;2022-07-23T11:25:31;101399.82;;;19.51;57.38
55460;BME280;41326;45.302;-122.946;2022-07-23T11:35:29;101408.16;;;19.42;57.32
55460;BME280;41326;45.302;-122.946;2022-07-23T11:40:28;101411.70;;;19.36;57.61
55460;BME280;41326;45.302;-122.946;2022-07-23T11:43:01;101410.31;;;19.37;57.55
55460;BME280;41326;45.302;-122.946;2022-07-23T11:45:31;101405.39;;;19.40;57.51
55460;BME280;41326;45.302;-122.946;2022-07-23T11:47:59;101406.08;;;19.40;57.51
55460;BME280;41326;45.302;-122.946;2022-07-23T11:50:30;101405.62;;;19.37;57.57
55460;BME280;41326;45.302;-122.946;2022-07-23T11:53:00;101404.09;;;19.39;57.53
55460;BME280;41326;45.302;-122.946;2022-07-23T11:55:29;101403.69;;;19.42;57.35
55460;BME280;41326;45.302;-122.946;2022-07-23T11:57:59;101409.06;;;19.43;57.32
55460;BME280;41326;45.302;-122.946;2022-07-23T12:00:31;101404.32;;;19.46;57.26
55460;BME280;41326;45.302;-122.946;2022-07-23T12:03:02;101405.81;;;19.43;57.31
55460;BME280;41326;45.302;-122.946;2022-07-23T12:05:33;101411.35;;;19.39;57.42
55460;BME280;41326;45.302;-122.946;2022-07-23T12:08:02;101412.84;;;19.34;57.55
55460;BME280;41326;45.302;-122.946;2022-07-23T12:10:34;101412.24;;;19.32;57.60
55460;BME280;41326;45.302;-122.946;2022-07-23T12:13:03;101412.13;;;19.24;57.74
55460;BME280;41326;45.302;-122.946;2022-07-23T12:15:34;101415.51;;;19.27;57.67
55460;BME280;41326;45.302;-122.946;2022-07-23T12:18:02;101419.81;;;19.31;57.52
55460;BME280;41326;45.302;-122.946;2022-07-23T12:20:35;101418.88;;;19.34;57.48
55460;BME280;41326;45.302;-122.946;2022-07-23T12:23:05;101418.26;;;19.33;57.54
55460;BME280;41326;45.302;-122.946;2022-07-23T12:25:35;101419.70;;;19.32;57.57
55460;BME280;41326;45.302;-122.946;2022-07-23T12:28:07;101420.00;;;19.32;57.57
55460;BME280;41326;45.302;-122.946;2022-07-23T12:30:38;101422.02;;;19.33;57.50
55460;BME280;41326;45.302;-122.946;2022-07-23T12:33:05;101428.63;;;19.37;57.34
55460;BME280;41326;45.302;-122.946;2022-07-23T12:35:39;101429.49;;;19.32;57.47
55460;BME280;41326;45.302;-122.946;2022-07-23T12:38:07;101430.33;;;19.33;57.39
55460;BME280;41326;45.302;-122.946;2022-07-23T12:40:37;101428.41;;;19.33;57.38
55460;BME280;41326;45.302;-122.946;2022-07-23T12:43:11;101430.17;;;19.33;57.34
55460;BME280;41326;45.302;-122.946;2022-07-23T12:45:42;101431.80;;;19.31;57.43
55460;BME280;41326;45.302;-122.946;2022-07-23T12:48:08;101429.37;;;19.30;57.45
55460;BME280;41326;45.302;-122.946;2022-07-23T12:50:39;101430.79;;;19.33;57.34
55460;BME280;41326;45.302;-122.946;2022-07-23T12:53:10;101430.86;;;19.34;57.25
55460;BME280;41326;45.302;-122.946;2022-07-23T12:55:38;101433.23;;;19.30;57.35
55460;BME280;41326;45.302;-122.946;2022-07-23T12:58:12;101433.07;;;19.27;57.45